sensor_id;sensor_type;location;lat;lon;timestamp;P1;durP1;ratioP1;P2;durP2;ratioP2
55290;SDS011;41155;39.768;2.712;2023-02-19T00:01:37;77.53;;;47.45;;
55290;SDS011;41155;39.768;2.712;2023-02-19T00:04:16;68.68;;;51.28;;
55290;SDS011;41155;39.768;2.712;2023-02-19T00:06:44;75.80;;;58.38;;
55290;SDS011;41155;39.768;2.712;2023-02-19T00:09:11;69.00;;;54.30;;
55290;SDS011;41155;39.768;2.712;2023-02-19T00:11:38;76.85;;;48.08;;
55290;SDS011;41155;39.768;2.712;2023-02-19T00:14:04;70.28;;;48.13;;
55290;SDS011;41155;39.768;2.712;2023-02-19T00:18:58;75.68;;;52.67;;
55290;SDS011;41155;39.768;2.712;2023-02-19T00:21:25;72.93;;;53.72;;
55290;SDS011;41155;39.768;2.712;2023-02-19T00:23:55;71.30;;;53.13;;
55290;SDS011;41155;39.768;2.712;2023-02-19T00:26:22;68.00;;;51.88;;
55290;SDS011;41155;39.768;2.712;2023-02-19T00:28:49;64.15;;;48.80;;
55290;SDS011;41155;39.768;2.712;2023-02-19T00:33:42;70.72;;;55.92;;
55290;SDS011;41155;39.768;2.712;2023-02-19T00:36:08;81.95;;;52.72;;
55290;SDS011;41155;39.768;2.712;2023-02-19T00:38:36;53.80;;;46.28;;
55290;SDS011;41155;39.768;2.712;2023-02-19T00:41:03;54.63;;;43.80;;
55290;SDS011;41155;39.768;2.712;2023-02-19T00:43:53;46.80;;;37.95;;
55290;SDS011;41155;39.768;2.712;2023-02-19T00:46:24;57.03;;;43.78;;
55290;SDS011;41155;39.768;2.712;2023-02-19T00:48:50;59.42;;;45.40;;
55290;SDS011;41155;39.768;2.712;2023-02-19T00:51:19;51.63;;;39.85;;
55290;SDS011;41155;39.768;2.712;2023-02-19T00:53:47;63.28;;;39.70;;
55290;SDS011;41155;39.768;2.712;2023-02-19T00:56:12;62.50;;;45.05;;
55290;SDS011;41155;39.768;2.712;2023-02-19T00:58:38;58.20;;;43.38;;
55290;SDS011;41155;39.768;2.712;2023-02-19T01:01:04;54.88;;;42.10;;
55290;SDS011;41155;39.768;2.712;2023-02-19T01:03:31;68.85;;;47.55;;
55290;SDS011;41155;39.768;2.712;2023-02-19T01:05:57;81.90;;;44.92;;
55290;SDS011;41155;39.768;2.712;2023-02-19T01:08:22;61.20;;;45.17;;
55290;SDS011;41155;39.768;2.712;2023-02-19T01:10:48;61.28;;;45.50;;
55290;SDS011;41155;39.768;2.712;2023-02-19T01:13:13;55.20;;;41.58;;
55290;SDS011;41155;39.768;2.712;2023-02-19T01:15:39;60.25;;;40.50;;
55290;SDS011;41155;39.768;2.712;2023-02-19T01:18:04;52.10;;;38.95;;
55290;SDS011;41155;39.768;2.712;2023-02-19T01:20:30;50.28;;;37.28;;
55290;SDS011;41155;39.768;2.712;2023-02-19T01:22:56;47.05;;;37.85;;
55290;SDS011;41155;39.768;2.712;2023-02-19T01:25:21;51.58;;;40.15;;
55290;SDS011;41155;39.768;2.712;2023-02-19T01:27:46;62.47;;;43.92;;
55290;SDS011;41155;39.768;2.712;2023-02-19T01:30:12;58.80;;;43.45;;
55290;SDS011;41155;39.768;2.712;2023-02-19T01:32:37;51.50;;;41.88;;
55290;SDS011;41155;39.768;2.712;2023-02-19T01:35:03;53.92;;;42.05;;
55290;SDS011;41155;39.768;2.712;2023-02-19T01:37:29;41.38;;;36.92;;
55290;SDS011;41155;39.768;2.712;2023-02-19T01:39:55;44.05;;;36.92;;
55290;SDS011;41155;39.768;2.712;2023-02-19T01:42:20;48.10;;;37.13;;
55290;SDS011;41155;39.768;2.712;2023-02-19T01:47:11;43.95;;;36.08;;
55290;SDS011;41155;39.768;2.712;2023-02-19T01:49:59;46.92;;;35.72;;
55290;SDS011;41155;39.768;2.712;2023-02-19T01:52:26;39.33;;;34.38;;
55290;SDS011;41155;39.768;2.712;2023-02-19T01:54:56;44.35;;;33.33;;
55290;SDS011;41155;39.768;2.712;2023-02-19T01:57:24;47.08;;;38.20;;
55290;SDS011;41155;39.768;2.712;2023-02-19T01:59:54;47.42;;;39.92;;
55290;SDS011;41155;39.768;2.712;2023-02-19T02:02:26;39.72;;;32.50;;
55290;SDS011;41155;39.768;2.712;2023-02-19T02:04:52;65.45;;;44.70;;
55290;SDS011;41155;39.768;2.712;2023-02-19T02:07:20;62.03;;;41.55;;
55290;SDS011;41155;39.768;2.712;2023-02-19T02:10:05;42.72;;;32.75;;
55290;SDS011;41155;39.768;2.712;2023-02-19T02:12:46;44.03;;;32.17;;
55290;SDS011;41155;39.768;2.712;2023-02-19T02:15:16;46.92;;;31.75;;
55290;SDS011;41155;39.768;2.712;2023-02-19T02:20:26;53.05;;;37.40;;
55290;SDS011;41155;39.768;2.712;2023-02-19T02:31:03;48.05;;;36.65;;
55290;SDS011;41155;39.768;2.712;2023-02-19T02:33:39;52.03;;;37.72;;
55290;SDS011;41155;39.768;2.712;2023-02-19T02:36:13;43.08;;;33.85;;
55290;SDS011;41155;39.768;2.712;2023-02-19T02:38:42;42.92;;;32.45;;
55290;SDS011;41155;39.768;2.712;2023-02-19T02:41:10;36.42;;;29.98;;
55290;SDS011;41155;39.768;2.712;2023-02-19T02:43:38;38.70;;;32.22;;
55290;SDS011;41155;39.768;2.712;2023-02-19T02:46:03;31.70;;;28.35;;
55290;SDS011;41155;39.768;2.712;2023-02-19T02:48:31;34.25;;;29.30;;
55290;SDS011;41155;39.768;2.712;2023-02-19T02:53:51;44.00;;;32.85;;
55290;SDS011;41155;39.768;2.712;2023-02-19T02:56:39;50.35;;;38.22;;
55290;SDS011;41155;39.768;2.712;2023-02-19T02:59:08;46.28;;;37.63;;
55290;SDS011;41155;39.768;2.712;2023-02-19T03:01:36;63.92;;;44.05;;
55290;SDS011;41155;39.768;2.712;2023-02-19T03:04:32;53.70;;;36.50;;
55290;SDS011;41155;39.768;2.712;2023-02-19T03:07:00;49.55;;;35.38;;
55290;SDS011;41155;39.768;2.712;2023-02-19T03:09:34;53.13;;;38.30;;
55290;SDS011;41155;39.768;2.712;2023-02-19T03:12:05;46.75;;;35.45;;
55290;SDS011;41155;39.768;2.712;2023-02-19T03:14:56;54.25;;;33.58;;
55290;SDS011;41155;39.768;2.712;2023-02-19T03:17:50;47.90;;;33.38;;
55290;SDS011;41155;39.768;2.712;2023-02-19T03:20:39;49.55;;;30.98;;
55290;SDS011;41155;39.768;2.712;2023-02-19T03:23:09;53.92;;;37.80;;
55290;SDS011;41155;39.768;2.712;2023-02-19T03:25:37;68.80;;;44.88;;
55290;SDS011;41155;39.768;2.712;2023-02-19T03:28:23;60.17;;;46.10;;
55290;SDS011;41155;39.768;2.712;2023-02-19T03:31:14;64.15;;;46.75;;
55290;SDS011;41155;39.768;2.712;2023-02-19T03:33:43;56.80;;;45.13;;
55290;SDS011;41155;39.768;2.712;2023-02-19T03:36:14;57.17;;;42.95;;
55290;SDS011;41155;39.768;2.712;2023-02-19T03:41:32;29.67;;;24.73;;
55290;SDS011;41155;39.768;2.712;2023-02-19T03:46:48;46.22;;;33.47;;
55290;SDS011;41155;39.768;2.712;2023-02-19T03:49:28;50.83;;;40.58;;
55290;SDS011;41155;39.768;2.712;2023-02-19T03:57:22;36.13;;;27.80;;
55290;SDS011;41155;39.768;2.712;2023-02-19T04:00:11;42.38;;;30.45;;
55290;SDS011;41155;39.768;2.712;2023-02-19T04:02:49;47.03;;;35.53;;
55290;SDS011;41155;39.768;2.712;2023-02-19T04:05:21;45.08;;;33.30;;
55290;SDS011;41155;39.768;2.712;2023-02-19T04:07:52;39.60;;;32.25;;
55290;SDS011;41155;39.768;2.712;2023-02-19T04:10:23;36.67;;;28.90;;
55290;SDS011;41155;39.768;2.712;2023-02-19T04:12:58;35.97;;;28.83;;
55290;SDS011;41155;39.768;2.712;2023-02-19T04:15:29;46.35;;;32.72;;
55290;SDS011;41155;39.768;2.712;2023-02-19T04:17:59;48.28;;;39.30;;
55290;SDS011;41155;39.768;2.712;2023-02-19T04:20:29;45.50;;;30.77;;
55290;SDS011;41155;39.768;2.712;2023-02-19T04:23:00;42.35;;;31.65;;
55290;SDS011;41155;39.768;2.712;2023-02-19T04:25:26;47.13;;;33.00;;
55290;SDS011;41155;39.768;2.712;2023-02-19T04:27:53;46.58;;;32.15;;
55290;SDS011;41155;39.768;2.712;2023-02-19T04:30:19;38.65;;;29.10;;
55290;SDS011;41155;39.768;2.712;2023-02-19T04:32:45;28.13;;;23.92;;
55290;SDS011;41155;39.768;2.712;2023-02-19T04:35:11;36.47;;;26.45;;
55290;SDS011;41155;39.768;2.712;2023-02-19T04:37:36;28.02;;;22.35;;
55290;SDS011;41155;39.768;2.712;2023-02-19T04:40:02;26.08;;;20.80;;
55290;SDS011;41155;39.768;2.712;2023-02-19T04:42:27;31.08;;;17.85;;
55290;SDS011;41155;39.768;2.712;2023-02-19T04:44:53;21.20;;;18.05;;
55290;SDS011;41155;39.768;2.712;2023-02-19T04:47:21;25.05;;;18.30;;
55290;SDS011;41155;39.768;2.712;2023-02-19T04:49:47;25.52;;;18.52;;
55290;SDS011;41155;39.768;2.712;2023-02-19T04:52:12;31.40;;;21.83;;
55290;SDS011;41155;39.768;2.712;2023-02-19T04:54:38;38.85;;;26.85;;
55290;SDS011;41155;39.768;2.712;2023-02-19T04:57:03;38.97;;;27.83;;
55290;SDS011;41155;39.768;2.712;2023-02-19T04:59:29;33.10;;;26.42;;
55290;SDS011;41155;39.768;2.712;2023-02-19T05:01:54;33.35;;;27.55;;
55290;SDS011;41155;39.768;2.712;2023-02-19T05:04:21;36.95;;;29.67;;
55290;SDS011;41155;39.768;2.712;2023-02-19T05:06:47;45.65;;;28.55;;
55290;SDS011;41155;39.768;2.712;2023-02-19T05:09:13;28.70;;;22.15;;
55290;SDS011;41155;39.768;2.712;2023-02-19T05:11:39;27.65;;;22.30;;
55290;SDS011;41155;39.768;2.712;2023-02-19T05:14:04;25.70;;;22.73;;
55290;SDS011;41155;39.768;2.712;2023-02-19T05:16:30;28.33;;;21.27;;
55290;SDS011;41155;39.768;2.712;2023-02-19T05:18:57;30.77;;;23.08;;
55290;SDS011;41155;39.768;2.712;2023-02-19T05:21:22;29.90;;;22.27;;
55290;SDS011;41155;39.768;2.712;2023-02-19T05:23:48;43.80;;;23.92;;
55290;SDS011;41155;39.768;2.712;2023-02-19T05:26:15;30.83;;;22.60;;
55290;SDS011;41155;39.768;2.712;2023-02-19T05:28:46;32.08;;;23.60;;
55290;SDS011;41155;39.768;2.712;2023-02-19T05:31:14;38.08;;;22.95;;
55290;SDS011;41155;39.768;2.712;2023-02-19T05:33:40;32.67;;;22.13;;
55290;SDS011;41155;39.768;2.712;2023-02-19T05:36:09;30.67;;;21.85;;
55290;SDS011;41155;39.768;2.712;2023-02-19T05:38:36;33.05;;;21.23;;
55290;SDS011;41155;39.768;2.712;2023-02-19T05:41:09;24.08;;;19.20;;
55290;SDS011;41155;39.768;2.712;2023-02-19T05:43:37;32.88;;;20.55;;
55290;SDS011;41155;39.768;2.712;2023-02-19T05:46:04;25.58;;;20.40;;
55290;SDS011;41155;39.768;2.712;2023-02-19T05:48:30;24.40;;;19.48;;
55290;SDS011;41155;39.768;2.712;2023-02-19T05:50:59;35.70;;;21.52;;
55290;SDS011;41155;39.768;2.712;2023-02-19T05:53:29;36.70;;;23.05;;
55290;SDS011;41155;39.768;2.712;2023-02-19T05:55:55;39.47;;;24.10;;
55290;SDS011;41155;39.768;2.712;2023-02-19T05:58:20;38.85;;;27.77;;
55290;SDS011;41155;39.768;2.712;2023-02-19T06:00:46;36.97;;;25.98;;
55290;SDS011;41155;39.768;2.712;2023-02-19T06:03:11;30.65;;;18.85;;
55290;SDS011;41155;39.768;2.712;2023-02-19T06:05:36;23.05;;;20.23;;
55290;SDS011;41155;39.768;2.712;2023-02-19T06:08:02;23.13;;;18.80;;
55290;SDS011;41155;39.768;2.712;2023-02-19T06:10:28;25.25;;;18.98;;
55290;SDS011;41155;39.768;2.712;2023-02-19T06:12:53;33.85;;;18.83;;
55290;SDS011;41155;39.768;2.712;2023-02-19T06:15:19;32.88;;;22.95;;
55290;SDS011;41155;39.768;2.712;2023-02-19T06:17:45;33.92;;;27.77;;
55290;SDS011;41155;39.768;2.712;2023-02-19T06:20:11;38.70;;;27.77;;
55290;SDS011;41155;39.768;2.712;2023-02-19T06:22:36;37.78;;;25.75;;
55290;SDS011;41155;39.768;2.712;2023-02-19T06:25:02;59.00;;;34.03;;
55290;SDS011;41155;39.768;2.712;2023-02-19T06:27:27;73.55;;;34.42;;
55290;SDS011;41155;39.768;2.712;2023-02-19T06:29:53;64.25;;;33.47;;
55290;SDS011;41155;39.768;2.712;2023-02-19T06:32:18;58.90;;;36.45;;
55290;SDS011;41155;39.768;2.712;2023-02-19T06:34:44;90.80;;;49.42;;
55290;SDS011;41155;39.768;2.712;2023-02-19T06:37:10;81.13;;;48.63;;
55290;SDS011;41155;39.768;2.712;2023-02-19T06:39:35;41.72;;;32.58;;
55290;SDS011;41155;39.768;2.712;2023-02-19T06:42:01;45.75;;;31.40;;
55290;SDS011;41155;39.768;2.712;2023-02-19T06:44:26;47.25;;;30.15;;
55290;SDS011;41155;39.768;2.712;2023-02-19T06:46:53;40.70;;;26.20;;
55290;SDS011;41155;39.768;2.712;2023-02-19T06:49:19;37.20;;;26.80;;
55290;SDS011;41155;39.768;2.712;2023-02-19T06:51:45;38.58;;;25.67;;
55290;SDS011;41155;39.768;2.712;2023-02-19T06:54:11;41.15;;;25.80;;
55290;SDS011;41155;39.768;2.712;2023-02-19T06:56:37;34.95;;;24.05;;
55290;SDS011;41155;39.768;2.712;2023-02-19T06:59:05;39.58;;;24.92;;
55290;SDS011;41155;39.768;2.712;2023-02-19T07:01:33;36.03;;;25.75;;
55290;SDS011;41155;39.768;2.712;2023-02-19T07:04:00;40.65;;;29.52;;
55290;SDS011;41155;39.768;2.712;2023-02-19T07:06:26;36.63;;;25.05;;
55290;SDS011;41155;39.768;2.712;2023-02-19T07:08:53;36.60;;;25.15;;
55290;SDS011;41155;39.768;2.712;2023-02-19T07:11:19;36.97;;;26.35;;
55290;SDS011;41155;39.768;2.712;2023-02-19T07:13:45;41.05;;;27.42;;
55290;SDS011;41155;39.768;2.712;2023-02-19T07:16:11;39.17;;;27.77;;
55290;SDS011;41155;39.768;2.712;2023-02-19T07:18:38;39.53;;;27.33;;
55290;SDS011;41155;39.768;2.712;2023-02-19T07:21:05;35.58;;;26.77;;
55290;SDS011;41155;39.768;2.712;2023-02-19T07:23:32;32.25;;;25.90;;
55290;SDS011;41155;39.768;2.712;2023-02-19T07:26:00;31.80;;;23.05;;
55290;SDS011;41155;39.768;2.712;2023-02-19T07:28:26;42.83;;;24.50;;
55290;SDS011;41155;39.768;2.712;2023-02-19T07:30:52;31.05;;;23.25;;
55290;SDS011;41155;39.768;2.712;2023-02-19T07:33:18;30.65;;;22.60;;
55290;SDS011;41155;39.768;2.712;2023-02-19T07:35:44;30.17;;;23.40;;
55290;SDS011;41155;39.768;2.712;2023-02-19T07:38:11;40.88;;;24.95;;
55290;SDS011;41155;39.768;2.712;2023-02-19T07:40:36;38.97;;;25.85;;
55290;SDS011;41155;39.768;2.712;2023-02-19T07:43:02;44.72;;;26.67;;
55290;SDS011;41155;39.768;2.712;2023-02-19T07:45:27;37.88;;;26.40;;
55290;SDS011;41155;39.768;2.712;2023-02-19T07:47:53;37.45;;;27.08;;
55290;SDS011;41155;39.768;2.712;2023-02-19T07:50:18;47.40;;;28.30;;
55290;SDS011;41155;39.768;2.712;2023-02-19T07:52:44;39.88;;;28.75;;
55290;SDS011;41155;39.768;2.712;2023-02-19T07:55:09;41.28;;;32.25;;
55290;SDS011;41155;39.768;2.712;2023-02-19T07:57:34;63.60;;;47.58;;
55290;SDS011;41155;39.768;2.712;2023-02-19T08:00:00;40.40;;;28.55;;
55290;SDS011;41155;39.768;2.712;2023-02-19T08:02:26;37.20;;;26.17;;
55290;SDS011;41155;39.768;2.712;2023-02-19T08:05:10;31.00;;;25.20;;
55290;SDS011;41155;39.768;2.712;2023-02-19T08:07:35;29.98;;;26.15;;
55290;SDS011;41155;39.768;2.712;2023-02-19T08:10:02;55.70;;;42.65;;
55290;SDS011;41155;39.768;2.712;2023-02-19T08:12:54;29.88;;;25.08;;
55290;SDS011;41155;39.768;2.712;2023-02-19T08:15:41;36.53;;;23.95;;
55290;SDS011;41155;39.768;2.712;2023-02-19T08:18:07;28.08;;;24.80;;
55290;SDS011;41155;39.768;2.712;2023-02-19T08:20:33;27.80;;;22.85;;
55290;SDS011;41155;39.768;2.712;2023-02-19T08:22:58;30.85;;;22.83;;
55290;SDS011;41155;39.768;2.712;2023-02-19T08:25:24;26.83;;;21.52;;
55290;SDS011;41155;39.768;2.712;2023-02-19T08:27:50;30.42;;;23.35;;
55290;SDS011;41155;39.768;2.712;2023-02-19T08:30:15;58.53;;;37.25;;
55290;SDS011;41155;39.768;2.712;2023-02-19T08:32:41;73.10;;;53.85;;
55290;SDS011;41155;39.768;2.712;2023-02-19T08:35:07;77.00;;;57.15;;
55290;SDS011;41155;39.768;2.712;2023-02-19T08:37:32;62.13;;;46.95;;
55290;SDS011;41155;39.768;2.712;2023-02-19T08:39:58;53.60;;;39.85;;
55290;SDS011;41155;39.768;2.712;2023-02-19T08:42:23;42.22;;;34.05;;
55290;SDS011;41155;39.768;2.712;2023-02-19T08:44:49;38.47;;;29.95;;
55290;SDS011;41155;39.768;2.712;2023-02-19T08:47:14;49.72;;;33.10;;
55290;SDS011;41155;39.768;2.712;2023-02-19T08:49:40;28.85;;;24.10;;
55290;SDS011;41155;39.768;2.712;2023-02-19T08:52:05;21.27;;;15.43;;
55290;SDS011;41155;39.768;2.712;2023-02-19T08:54:30;19.77;;;15.98;;
55290;SDS011;41155;39.768;2.712;2023-02-19T08:56:56;15.95;;;13.35;;
55290;SDS011;41155;39.768;2.712;2023-02-19T08:59:22;18.17;;;13.02;;
55290;SDS011;41155;39.768;2.712;2023-02-19T09:01:47;21.70;;;13.15;;
55290;SDS011;41155;39.768;2.712;2023-02-19T09:04:13;20.00;;;13.65;;
55290;SDS011;41155;39.768;2.712;2023-02-19T09:06:38;22.83;;;17.50;;
55290;SDS011;41155;39.768;2.712;2023-02-19T09:09:04;17.10;;;14.95;;
55290;SDS011;41155;39.768;2.712;2023-02-19T09:11:29;13.07;;;11.75;;
55290;SDS011;41155;39.768;2.712;2023-02-19T09:13:55;34.88;;;20.05;;
55290;SDS011;41155;39.768;2.712;2023-02-19T09:16:21;33.10;;;20.20;;
55290;SDS011;41155;39.768;2.712;2023-02-19T09:18:46;33.83;;;19.30;;
55290;SDS011;41155;39.768;2.712;2023-02-19T09:21:12;17.02;;;15.25;;
55290;SDS011;41155;39.768;2.712;2023-02-19T09:23:38;15.35;;;12.70;;
55290;SDS011;41155;39.768;2.712;2023-02-19T09:26:06;15.15;;;12.07;;
55290;SDS011;41155;39.768;2.712;2023-02-19T09:28:34;13.75;;;11.82;;
55290;SDS011;41155;39.768;2.712;2023-02-19T09:31:03;17.05;;;12.20;;
55290;SDS011;41155;39.768;2.712;2023-02-19T09:33:30;17.10;;;13.48;;
55290;SDS011;41155;39.768;2.712;2023-02-19T09:35:57;23.65;;;13.77;;
55290;SDS011;41155;39.768;2.712;2023-02-19T09:38:24;25.50;;;18.55;;
55290;SDS011;41155;39.768;2.712;2023-02-19T09:40:50;30.42;;;20.25;;
55290;SDS011;41155;39.768;2.712;2023-02-19T09:43:20;24.10;;;19.05;;
55290;SDS011;41155;39.768;2.712;2023-02-19T09:45:47;24.17;;;18.30;;
55290;SDS011;41155;39.768;2.712;2023-02-19T09:48:14;18.00;;;16.27;;
55290;SDS011;41155;39.768;2.712;2023-02-19T09:50:44;22.40;;;16.23;;
55290;SDS011;41155;39.768;2.712;2023-02-19T09:53:17;14.20;;;12.68;;
55290;SDS011;41155;39.768;2.712;2023-02-19T09:55:49;17.48;;;12.70;;
55290;SDS011;41155;39.768;2.712;2023-02-19T10:01:05;12.40;;;10.88;;
55290;SDS011;41155;39.768;2.712;2023-02-19T10:03:39;10.13;;;7.95;;
55290;SDS011;41155;39.768;2.712;2023-02-19T10:06:13;10.57;;;8.32;;
55290;SDS011;41155;39.768;2.712;2023-02-19T10:08:48;9.88;;;8.48;;
55290;SDS011;41155;39.768;2.712;2023-02-19T10:11:16;12.10;;;8.52;;
55290;SDS011;41155;39.768;2.712;2023-02-19T10:13:44;9.13;;;7.97;;
55290;SDS011;41155;39.768;2.712;2023-02-19T10:16:23;8.85;;;7.95;;
55290;SDS011;41155;39.768;2.712;2023-02-19T10:18:51;10.95;;;8.95;;
55290;SDS011;41155;39.768;2.712;2023-02-19T10:21:23;13.65;;;8.27;;
55290;SDS011;41155;39.768;2.712;2023-02-19T10:24:12;8.48;;;7.53;;
55290;SDS011;41155;39.768;2.712;2023-02-19T10:26:44;10.77;;;7.85;;
55290;SDS011;41155;39.768;2.712;2023-02-19T10:29:09;7.85;;;7.22;;
55290;SDS011;41155;39.768;2.712;2023-02-19T10:31:35;8.85;;;7.40;;
55290;SDS011;41155;39.768;2.712;2023-02-19T10:34:01;9.88;;;6.45;;
55290;SDS011;41155;39.768;2.712;2023-02-19T10:36:37;9.82;;;6.50;;
55290;SDS011;41155;39.768;2.712;2023-02-19T10:41:46;7.50;;;5.88;;
55290;SDS011;41155;39.768;2.712;2023-02-19T10:44:15;10.48;;;6.43;;
55290;SDS011;41155;39.768;2.712;2023-02-19T10:46:46;8.88;;;6.13;;
55290;SDS011;41155;39.768;2.712;2023-02-19T10:51:39;8.10;;;6.60;;
55290;SDS011;41155;39.768;2.712;2023-02-19T10:54:18;9.00;;;7.25;;
55290;SDS011;41155;39.768;2.712;2023-02-19T10:56:49;13.75;;;9.85;;
55290;SDS011;41155;39.768;2.712;2023-02-19T10:59:22;13.57;;;7.38;;
55290;SDS011;41155;39.768;2.712;2023-02-19T11:02:02;21.55;;;9.70;;
55290;SDS011;41155;39.768;2.712;2023-02-19T11:04:39;6.22;;;5.55;;
55290;SDS011;41155;39.768;2.712;2023-02-19T11:07:17;8.70;;;5.38;;
55290;SDS011;41155;39.768;2.712;2023-02-19T11:09:44;5.50;;;4.93;;
55290;SDS011;41155;39.768;2.712;2023-02-19T11:12:13;11.73;;;4.75;;
55290;SDS011;41155;39.768;2.712;2023-02-19T11:14:49;5.00;;;4.60;;
55290;SDS011;41155;39.768;2.712;2023-02-19T11:17:25;7.40;;;5.13;;
55290;SDS011;41155;39.768;2.712;2023-02-19T11:19:53;6.05;;;4.40;;
55290;SDS011;41155;39.768;2.712;2023-02-19T11:22:31;8.60;;;4.95;;
55290;SDS011;41155;39.768;2.712;2023-02-19T11:27:34;6.57;;;4.45;;
55290;SDS011;41155;39.768;2.712;2023-02-19T11:33:38;7.97;;;5.13;;
55290;SDS011;41155;39.768;2.712;2023-02-19T12:00:46;10.05;;;7.22;;
55290;SDS011;41155;39.768;2.712;2023-02-19T12:08:57;7.53;;;5.55;;
55290;SDS011;41155;39.768;2.712;2023-02-19T12:11:39;8.53;;;6.37;;
55290;SDS011;41155;39.768;2.712;2023-02-19T12:14:35;7.88;;;5.35;;
55290;SDS011;41155;39.768;2.712;2023-02-19T12:22:36;8.00;;;5.18;;
55290;SDS011;41155;39.768;2.712;2023-02-19T12:28:32;13.43;;;4.28;;
55290;SDS011;41155;39.768;2.712;2023-02-19T12:33:47;5.43;;;3.97;;
55290;SDS011;41155;39.768;2.712;2023-02-19T12:39:08;6.60;;;4.22;;
55290;SDS011;41155;39.768;2.712;2023-02-19T12:41:52;5.82;;;3.28;;
55290;SDS011;41155;39.768;2.712;2023-02-19T12:44:41;4.72;;;3.42;;
55290;SDS011;41155;39.768;2.712;2023-02-19T12:47:05;6.18;;;4.28;;
55290;SDS011;41155;39.768;2.712;2023-02-19T12:49:36;7.75;;;5.50;;
55290;SDS011;41155;39.768;2.712;2023-02-19T12:52:10;23.02;;;11.95;;
55290;SDS011;41155;39.768;2.712;2023-02-19T12:54:46;14.57;;;6.35;;
55290;SDS011;41155;39.768;2.712;2023-02-19T12:57:20;9.20;;;5.85;;
55290;SDS011;41155;39.768;2.712;2023-02-19T13:02:17;8.85;;;4.30;;
55290;SDS011;41155;39.768;2.712;2023-02-19T13:07:45;5.05;;;4.55;;
55290;SDS011;41155;39.768;2.712;2023-02-19T13:13:11;6.50;;;4.88;;
55290;SDS011;41155;39.768;2.712;2023-02-19T13:15:46;5.40;;;4.90;;
55290;SDS011;41155;39.768;2.712;2023-02-19T13:20:54;9.07;;;4.38;;
55290;SDS011;41155;39.768;2.712;2023-02-19T13:23:27;4.32;;;3.67;;
55290;SDS011;41155;39.768;2.712;2023-02-19T13:37:17;10.07;;;4.35;;
55290;SDS011;41155;39.768;2.712;2023-02-19T13:39:46;13.82;;;4.00;;
55290;SDS011;41155;39.768;2.712;2023-02-19T13:42:24;4.25;;;3.90;;
55290;SDS011;41155;39.768;2.712;2023-02-19T13:44:52;7.03;;;4.30;;
55290;SDS011;41155;39.768;2.712;2023-02-19T13:50:11;5.60;;;4.70;;
55290;SDS011;41155;39.768;2.712;2023-02-19T13:52:52;4.20;;;3.70;;
55290;SDS011;41155;39.768;2.712;2023-02-19T14:00:56;4.40;;;4.00;;
55290;SDS011;41155;39.768;2.712;2023-02-19T14:06:11;6.28;;;3.97;;
55290;SDS011;41155;39.768;2.712;2023-02-19T14:08:58;4.97;;;4.07;;
55290;SDS011;41155;39.768;2.712;2023-02-19T14:19:49;11.95;;;4.53;;
55290;SDS011;41155;39.768;2.712;2023-02-19T14:25:54;6.72;;;4.70;;
55290;SDS011;41155;39.768;2.712;2023-02-19T14:30:50;5.82;;;4.70;;
55290;SDS011;41155;39.768;2.712;2023-02-19T14:33:22;8.13;;;5.05;;
55290;SDS011;41155;39.768;2.712;2023-02-19T14:35:52;7.85;;;5.47;;
55290;SDS011;41155;39.768;2.712;2023-02-19T14:38:30;7.70;;;5.68;;
55290;SDS011;41155;39.768;2.712;2023-02-19T14:41:23;6.63;;;5.53;;
55290;SDS011;41155;39.768;2.712;2023-02-19T14:43:50;7.90;;;5.60;;
55290;SDS011;41155;39.768;2.712;2023-02-19T14:48:49;14.10;;;7.55;;
55290;SDS011;41155;39.768;2.712;2023-02-19T14:51:37;7.40;;;6.32;;
55290;SDS011;41155;39.768;2.712;2023-02-19T14:54:14;6.82;;;5.88;;
55290;SDS011;41155;39.768;2.712;2023-02-19T14:56:47;7.05;;;6.35;;
55290;SDS011;41155;39.768;2.712;2023-02-19T15:01:43;7.72;;;6.55;;
55290;SDS011;41155;39.768;2.712;2023-02-19T15:04:20;9.60;;;6.57;;
55290;SDS011;41155;39.768;2.712;2023-02-19T15:06:47;15.10;;;10.07;;
55290;SDS011;41155;39.768;2.712;2023-02-19T15:09:13;12.23;;;8.82;;
55290;SDS011;41155;39.768;2.712;2023-02-19T15:11:40;12.75;;;7.75;;
55290;SDS011;41155;39.768;2.712;2023-02-19T15:14:07;7.30;;;6.65;;
55290;SDS011;41155;39.768;2.712;2023-02-19T15:16:44;9.43;;;6.50;;
55290;SDS011;41155;39.768;2.712;2023-02-19T15:19:11;7.25;;;6.50;;
55290;SDS011;41155;39.768;2.712;2023-02-19T15:21:42;15.27;;;7.95;;
55290;SDS011;41155;39.768;2.712;2023-02-19T15:24:10;10.52;;;8.10;;
55290;SDS011;41155;39.768;2.712;2023-02-19T15:26:40;9.80;;;8.80;;
55290;SDS011;41155;39.768;2.712;2023-02-19T15:29:10;16.05;;;12.32;;
55290;SDS011;41155;39.768;2.712;2023-02-19T15:34:39;9.80;;;8.77;;
55290;SDS011;41155;39.768;2.712;2023-02-19T15:37:06;7.72;;;6.07;;
55290;SDS011;41155;39.768;2.712;2023-02-19T15:39:38;8.05;;;5.78;;
55290;SDS011;41155;39.768;2.712;2023-02-19T15:42:08;8.35;;;6.18;;
55290;SDS011;41155;39.768;2.712;2023-02-19T15:44:47;8.73;;;6.30;;
55290;SDS011;41155;39.768;2.712;2023-02-19T15:47:25;9.43;;;7.03;;
55290;SDS011;41155;39.768;2.712;2023-02-19T15:52:51;8.18;;;5.80;;
55290;SDS011;41155;39.768;2.712;2023-02-19T15:57:53;7.10;;;6.40;;
55290;SDS011;41155;39.768;2.712;2023-02-19T16:03:14;9.85;;;6.88;;
55290;SDS011;41155;39.768;2.712;2023-02-19T16:05:43;10.27;;;7.22;;
55290;SDS011;41155;39.768;2.712;2023-02-19T16:08:18;22.20;;;7.93;;
55290;SDS011;41155;39.768;2.712;2023-02-19T16:10:55;14.00;;;8.98;;
55290;SDS011;41155;39.768;2.712;2023-02-19T16:13:23;13.57;;;9.40;;
55290;SDS011;41155;39.768;2.712;2023-02-19T16:18:37;12.52;;;8.45;;
55290;SDS011;41155;39.768;2.712;2023-02-19T16:21:04;9.52;;;8.43;;
55290;SDS011;41155;39.768;2.712;2023-02-19T16:23:33;14.10;;;10.02;;
55290;SDS011;41155;39.768;2.712;2023-02-19T16:26:00;9.38;;;8.48;;
55290;SDS011;41155;39.768;2.712;2023-02-19T16:28:27;12.55;;;10.48;;
55290;SDS011;41155;39.768;2.712;2023-02-19T16:31:08;12.55;;;10.70;;
55290;SDS011;41155;39.768;2.712;2023-02-19T16:33:42;11.20;;;9.73;;
55290;SDS011;41155;39.768;2.712;2023-02-19T16:44:28;10.55;;;8.98;;
55290;SDS011;41155;39.768;2.712;2023-02-19T16:46:49;7.82;;;7.22;;
55290;SDS011;41155;39.768;2.712;2023-02-19T16:49:17;9.50;;;6.95;;
55290;SDS011;41155;39.768;2.712;2023-02-19T16:51:43;11.32;;;8.45;;
55290;SDS011;41155;39.768;2.712;2023-02-19T16:54:10;9.05;;;8.18;;
55290;SDS011;41155;39.768;2.712;2023-02-19T16:56:35;10.77;;;9.77;;
55290;SDS011;41155;39.768;2.712;2023-02-19T16:59:01;11.02;;;9.88;;
55290;SDS011;41155;39.768;2.712;2023-02-19T17:01:26;10.48;;;9.45;;
55290;SDS011;41155;39.768;2.712;2023-02-19T17:03:53;11.60;;;10.40;;
55290;SDS011;41155;39.768;2.712;2023-02-19T17:06:23;11.43;;;9.32;;
55290;SDS011;41155;39.768;2.712;2023-02-19T17:08:49;21.83;;;15.38;;
55290;SDS011;41155;39.768;2.712;2023-02-19T17:11:15;21.98;;;18.27;;
55290;SDS011;41155;39.768;2.712;2023-02-19T17:13:42;19.20;;;17.05;;
55290;SDS011;41155;39.768;2.712;2023-02-19T17:16:16;37.38;;;28.17;;
55290;SDS011;41155;39.768;2.712;2023-02-19T17:18:43;42.78;;;28.73;;
55290;SDS011;41155;39.768;2.712;2023-02-19T17:21:27;45.92;;;30.40;;
55290;SDS011;41155;39.768;2.712;2023-02-19T17:23:56;38.65;;;32.28;;
55290;SDS011;41155;39.768;2.712;2023-02-19T17:26:25;59.35;;;43.15;;
55290;SDS011;41155;39.768;2.712;2023-02-19T17:28:56;59.65;;;43.58;;